sensor_id;sensor_type;location;lat;lon;timestamp;pressure;altitude;pressure_sealevel;temperature;humidity
21828;BME280;11076;47.942;11.804;2023-07-02T00:04:01;93805.13;;;16.18;100.00
21828;BME280;11076;47.942;11.804;2023-07-02T00:09:04;93808.88;;;16.17;100.00
21828;BME280;11076;47.942;11.804;2023-07-02T00:14:07;93808.88;;;16.17;100.00
21828;BME280;11076;47.942;11.804;2023-07-02T00:19:10;93815.63;;;16.14;100.00
21828;BME280;11076;47.942;11.804;2023-07-02T00:24:13;93808.34;;;16.20;100.00
21828;BME280;11076;47.942;11.804;2023-07-02T00:29:15;93814.28;;;16.37;100.00
21828;BME280;11076;47.942;11.804;2023-07-02T00:34:18;93821.88;;;16.45;100.00
21828;BME280;11076;47.942;11.804;2023-07-02T00:39:21;93817.56;;;16.60;100.00
21828;BME280;11076;47.942;11.804;2023-07-02T00:44:23;93820.22;;;16.55;100.00
21828;BME280;11076;47.942;11.804;2023-07-02T00:49:25;93823.75;;;16.70;100.00
21828;BME280;11076;47.942;11.804;2023-07-02T00:54:29;93828.34;;;16.70;100.00
21828;BME280;11076;47.942;11.804;2023-07-02T00:59:32;93833.44;;;16.77;100.00
21828;BME280;11076;47.942;11.804;2023-07-02T01:04:37;93827.84;;;16.83;100.00
21828;BME280;11076;47.942;11.804;2023-07-02T01:09:40;93836.44;;;16.80;100.00
21828;BME280;11076;47.942;11.804;2023-07-02T01:14:50;93832.38;;;16.62;100.00
21828;BME280;11076;47.942;11.804;2023-07-02T01:19:56;93839.94;;;16.70;100.00
21828;BME280;11076;47.942;11.804;2023-07-02T01:25:02;93842.91;;;16.74;100.00
21828;BME280;11076;47.942;11.804;2023-07-02T01:30:05;93841.00;;;16.75;100.00
21828;BME280;11076;47.942;11.804;2023-07-02T01:35:10;93835.63;;;16.59;100.00
21828;BME280;11076;47.942;11.804;2023-07-02T01:40:12;93833.19;;;16.53;100.00
21828;BME280;11076;47.942;11.804;2023-07-02T01:45:15;93831.03;;;16.55;100.00
21828;BME280;11076;47.942;11.804;2023-07-02T01:50:17;93834.25;;;16.67;100.00
21828;BME280;11076;47.942;11.804;2023-07-02T01:55:20;93839.41;;;16.63;100.00
21828;BME280;11076;47.942;11.804;2023-07-02T02:00:22;93847.22;;;16.44;100.00
21828;BME280;11076;47.942;11.804;2023-07-02T02:05:26;93840.72;;;16.40;100.00
21828;BME280;11076;47.942;11.804;2023-07-02T02:10:28;93840.19;;;16.28;100.00
21828;BME280;11076;47.942;11.804;2023-07-02T02:15:31;93833.16;;;16.22;100.00
21828;BME280;11076;47.942;11.804;2023-07-02T02:20:33;93839.34;;;16.12;100.00
21828;BME280;11076;47.942;11.804;2023-07-02T02:25:35;93842.28;;;16.00;100.00
21828;BME280;11076;47.942;11.804;2023-07-02T02:30:38;93838.22;;;15.93;100.00
21828;BME280;11076;47.942;11.804;2023-07-02T02:35:40;93840.66;;;15.99;100.00
21828;BME280;11076;47.942;11.804;2023-07-02T02:40:43;93845.53;;;16.02;100.00
21828;BME280;11076;47.942;11.804;2023-07-02T02:45:49;93843.38;;;16.15;100.00
21828;BME280;11076;47.942;11.804;2023-07-02T02:50:52;93845.03;;;16.16;100.00
21828;BME280;11076;47.942;11.804;2023-07-02T02:55:54;93846.91;;;16.30;100.00
21828;BME280;11076;47.942;11.804;2023-07-02T03:00:57;93851.53;;;16.40;100.00
21828;BME280;11076;47.942;11.804;2023-07-02T03:06:00;93854.25;;;16.45;100.00
21828;BME280;11076;47.942;11.804;2023-07-02T03:11:03;93857.47;;;16.42;100.00
21828;BME280;11076;47.942;11.804;2023-07-02T03:16:06;93859.63;;;16.45;100.00
21828;BME280;11076;47.942;11.804;2023-07-02T03:21:08;93872.28;;;16.45;100.00
21828;BME280;11076;47.942;11.804;2023-07-02T03:26:12;93870.41;;;16.50;100.00
21828;BME280;11076;47.942;11.804;2023-07-02T03:31:14;93876.91;;;16.60;100.00
21828;BME280;11076;47.942;11.804;2023-07-02T03:36:17;93876.09;;;16.64;100.00
21828;BME280;11076;47.942;11.804;2023-07-02T03:41:19;93885.28;;;16.68;100.00
21828;BME280;11076;47.942;11.804;2023-07-02T03:46:21;93879.59;;;16.65;100.00
21828;BME280;11076;47.942;11.804;2023-07-02T03:51:24;93890.94;;;16.62;100.00
21828;BME280;11076;47.942;11.804;2023-07-02T03:56:26;93905.25;;;16.62;100.00
21828;BME280;11076;47.942;11.804;2023-07-02T04:01:29;93913.63;;;16.66;100.00
21828;BME280;11076;47.942;11.804;2023-07-02T04:06:32;93917.38;;;16.65;100.00
21828;BME280;11076;47.942;11.804;2023-07-02T04:11:36;93927.66;;;16.68;100.00
21828;BME280;11076;47.942;11.804;2023-07-02T04:16:38;93966.78;;;15.92;100.00
21828;BME280;11076;47.942;11.804;2023-07-02T04:21:40;93974.78;;;15.34;100.00
21828;BME280;11076;47.942;11.804;2023-07-02T04:26:43;93983.31;;;14.94;100.00
21828;BME280;11076;47.942;11.804;2023-07-02T04:31:46;93990.81;;;14.86;100.00
21828;BME280;11076;47.942;11.804;2023-07-02T04:36:49;93999.03;;;14.75;100.00
21828;BME280;11076;47.942;11.804;2023-07-02T04:41:52;93995.25;;;14.76;100.00
21828;BME280;11076;47.942;11.804;2023-07-02T04:46:59;93991.19;;;14.73;100.00
21828;BME280;11076;47.942;11.804;2023-07-02T04:52:02;93984.16;;;14.67;100.00
21828;BME280;11076;47.942;11.804;2023-07-02T04:57:05;93990.28;;;14.89;100.00
21828;BME280;11076;47.942;11.804;2023-07-02T05:02:08;93988.19;;;14.97;100.00
21828;BME280;11076;47.942;11.804;2023-07-02T05:07:10;93988.19;;;14.97;100.00
21828;BME280;11076;47.942;11.804;2023-07-02T05:12:13;93993.66;;;15.07;100.00
21828;BME280;11076;47.942;11.804;2023-07-02T05:17:15;93986.00;;;15.26;100.00
21828;BME280;11076;47.942;11.804;2023-07-02T05:22:18;93988.56;;;15.43;100.00
21828;BME280;11076;47.942;11.804;2023-07-02T05:27:21;93991.75;;;15.35;100.00
21828;BME280;11076;47.942;11.804;2023-07-02T05:32:23;94004.28;;;15.19;100.00
21828;BME280;11076;47.942;11.804;2023-07-02T05:37:26;94011.63;;;15.34;100.00
21828;BME280;11076;47.942;11.804;2023-07-02T05:42:28;94000.44;;;15.47;100.00
21828;BME280;11076;47.942;11.804;2023-07-02T05:47:30;93997.31;;;15.60;100.00
21828;BME280;11076;47.942;11.804;2023-07-02T05:52:33;94014.03;;;15.62;100.00
21828;BME280;11076;47.942;11.804;2023-07-02T05:57:36;94018.00;;;15.55;100.00
21828;BME280;11076;47.942;11.804;2023-07-02T06:02:39;94013.97;;;15.57;100.00
21828;BME280;11076;47.942;11.804;2023-07-02T06:07:41;94019.06;;;15.86;100.00
21828;BME280;11076;47.942;11.804;2023-07-02T06:12:43;94022.81;;;15.80;100.00
21828;BME280;11076;47.942;11.804;2023-07-02T06:17:46;94021.28;;;15.99;100.00
21828;BME280;11076;47.942;11.804;2023-07-02T06:22:49;94021.69;;;16.28;100.00
21828;BME280;11076;47.942;11.804;2023-07-02T06:27:51;94022.44;;;16.14;100.00
21828;BME280;11076;47.942;11.804;2023-07-02T06:32:56;94028.50;;;16.41;100.00
21828;BME280;11076;47.942;11.804;2023-07-02T06:37:58;94018.28;;;16.54;100.00
21828;BME280;11076;47.942;11.804;2023-07-02T06:43:00;94018.28;;;16.59;100.00
21828;BME280;11076;47.942;11.804;2023-07-02T06:48:03;94010.84;;;16.86;100.00
21828;BME280;11076;47.942;11.804;2023-07-02T06:53:05;94016.25;;;16.97;100.00
21828;BME280;11076;47.942;11.804;2023-07-02T06:58:08;94014.13;;;17.04;100.00
21828;BME280;11076;47.942;11.804;2023-07-02T07:03:10;94014.09;;;16.88;100.00
21828;BME280;11076;47.942;11.804;2023-07-02T07:08:13;94023.00;;;16.84;100.00
21828;BME280;11076;47.942;11.804;2023-07-02T07:13:15;94011.41;;;16.94;100.00
21828;BME280;11076;47.942;11.804;2023-07-02T07:18:17;94010.38;;;17.41;100.00
21828;BME280;11076;47.942;11.804;2023-07-02T07:23:23;93998.44;;;17.67;100.00
21828;BME280;11076;47.942;11.804;2023-07-02T07:28:25;94005.72;;;17.82;100.00
21828;BME280;11076;47.942;11.804;2023-07-02T07:33:28;94002.78;;;17.84;100.00
21828;BME280;11076;47.942;11.804;2023-07-02T07:38:30;93994.66;;;17.79;100.00
21828;BME280;11076;47.942;11.804;2023-07-02T07:43:33;94003.31;;;17.91;100.00
21828;BME280;11076;47.942;11.804;2023-07-02T07:48:36;93994.03;;;18.18;98.81
21828;BME280;11076;47.942;11.804;2023-07-02T07:53:38;93993.34;;;18.52;97.72
21828;BME280;11076;47.942;11.804;2023-07-02T07:58:41;93994.69;;;18.54;96.14
21828;BME280;11076;47.942;11.804;2023-07-02T08:03:43;94006.09;;;18.51;97.32
21828;BME280;11076;47.942;11.804;2023-07-02T08:08:46;94020.06;;;17.88;99.62
21828;BME280;11076;47.942;11.804;2023-07-02T08:13:48;94034.13;;;17.34;100.00
21828;BME280;11076;47.942;11.804;2023-07-02T08:18:51;94054.38;;;17.26;100.00
21828;BME280;11076;47.942;11.804;2023-07-02T08:23:54;94065.28;;;16.73;100.00
21828;BME280;11076;47.942;11.804;2023-07-02T08:28:56;94073.31;;;16.53;100.00
21828;BME280;11076;47.942;11.804;2023-07-02T08:33:59;94082.94;;;16.28;100.00
21828;BME280;11076;47.942;11.804;2023-07-02T08:39:01;94085.63;;;16.28;100.00
21828;BME280;11076;47.942;11.804;2023-07-02T08:44:04;94096.91;;;16.25;100.00
21828;BME280;11076;47.942;11.804;2023-07-02T08:49:07;94088.97;;;16.50;100.00
21828;BME280;11076;47.942;11.804;2023-07-02T08:54:09;94090.56;;;16.46;100.00
21828;BME280;11076;47.942;11.804;2023-07-02T08:59:12;94090.66;;;16.67;100.00
21828;BME280;11076;47.942;11.804;2023-07-02T09:04:25;94094.72;;;16.75;100.00
21828;BME280;11076;47.942;11.804;2023-07-02T09:09:28;94108.06;;;16.97;100.00
21828;BME280;11076;47.942;11.804;2023-07-02T09:14:31;94101.13;;;17.21;100.00
21828;BME280;11076;47.942;11.804;2023-07-02T09:19:34;94096.84;;;17.61;98.42
21828;BME280;11076;47.942;11.804;2023-07-02T09:24:37;94110.63;;;17.80;96.36
21828;BME280;11076;47.942;11.804;2023-07-02T09:29:39;94102.50;;;18.21;96.20
21828;BME280;11076;47.942;11.804;2023-07-02T09:34:41;94106.81;;;18.38;94.59
21828;BME280;11076;47.942;11.804;2023-07-02T09:39:44;94100.81;;;19.66;90.98
21828;BME280;11076;47.942;11.804;2023-07-02T09:44:52;94111.91;;;19.70;85.82
21828;BME280;11076;47.942;11.804;2023-07-02T09:50:03;94117.78;;;18.87;87.15
21828;BME280;11076;47.942;11.804;2023-07-02T09:55:08;94113.25;;;18.62;89.68
21828;BME280;11076;47.942;11.804;2023-07-02T10:00:13;94108.88;;;20.11;86.64
21828;BME280;11076;47.942;11.804;2023-07-02T10:05:29;94111.69;;;20.59;82.79
21828;BME280;11076;47.942;11.804;2023-07-02T10:10:32;94101.28;;;22.23;79.66
21828;BME280;11076;47.942;11.804;2023-07-02T10:15:34;94101.31;;;21.52;75.01
21828;BME280;11076;47.942;11.804;2023-07-02T10:20:41;94101.72;;;21.97;73.94
21828;BME280;11076;47.942;11.804;2023-07-02T10:25:43;94105.06;;;22.08;73.16
21828;BME280;11076;47.942;11.804;2023-07-02T10:30:46;94094.84;;;22.00;73.18
21828;BME280;11076;47.942;11.804;2023-07-02T10:35:49;94094.47;;;22.26;72.33
21828;BME280;11076;47.942;11.804;2023-07-02T10:40:59;94093.50;;;21.83;73.92
21828;BME280;11076;47.942;11.804;2023-07-02T10:46:04;94085.31;;;22.02;75.25
21828;BME280;11076;47.942;11.804;2023-07-02T10:51:13;94089.75;;;21.79;76.03
21828;BME280;11076;47.942;11.804;2023-07-02T10:56:16;94084.25;;;21.65;76.89
21828;BME280;11076;47.942;11.804;2023-07-02T11:01:27;94089.25;;;21.77;75.32
21828;BME280;11076;47.942;11.804;2023-07-02T11:06:31;94073.50;;;23.59;71.71
21828;BME280;11076;47.942;11.804;2023-07-02T11:11:35;94070.59;;;22.92;71.10
21828;BME280;11076;47.942;11.804;2023-07-02T11:16:38;94065.69;;;23.44;71.37
21828;BME280;11076;47.942;11.804;2023-07-02T11:21:54;94063.38;;;23.74;70.43
21828;BME280;11076;47.942;11.804;2023-07-02T11:26:59;94039.09;;;24.49;64.88
21828;BME280;11076;47.942;11.804;2023-07-02T11:37:08;94043.91;;;24.12;64.16
21828;BME280;11076;47.942;11.804;2023-07-02T11:42:10;94047.25;;;23.63;63.53
21828;BME280;11076;47.942;11.804;2023-07-02T11:47:13;94041.16;;;23.67;61.76
21828;BME280;11076;47.942;11.804;2023-07-02T11:52:15;94046.97;;;23.01;63.58
21828;BME280;11076;47.942;11.804;2023-07-02T11:57:18;94042.03;;;22.75;64.14
21828;BME280;11076;47.942;11.804;2023-07-02T12:02:20;94036.38;;;23.50;62.57
21828;BME280;11076;47.942;11.804;2023-07-02T12:07:22;94038.66;;;23.34;61.13
21828;BME280;11076;47.942;11.804;2023-07-02T12:12:25;94039.72;;;23.69;58.77
21828;BME280;11076;47.942;11.804;2023-07-02T12:17:27;94027.53;;;23.89;59.75
21828;BME280;11076;47.942;11.804;2023-07-02T12:22:30;94028.41;;;23.98;59.97
21828;BME280;11076;47.942;11.804;2023-07-02T12:27:32;94021.50;;;24.24;57.70
21828;BME280;11076;47.942;11.804;2023-07-02T12:32:34;94039.59;;;23.15;58.64
21828;BME280;11076;47.942;11.804;2023-07-02T12:37:48;94017.53;;;24.07;56.81
21828;BME280;11076;47.942;11.804;2023-07-02T12:42:51;94015.09;;;25.26;54.24
21828;BME280;11076;47.942;11.804;2023-07-02T12:47:53;94005.50;;;24.88;52.15
21828;BME280;11076;47.942;11.804;2023-07-02T12:52:55;94006.59;;;24.38;52.74
21828;BME280;11076;47.942;11.804;2023-07-02T12:57:58;94010.50;;;23.84;54.89
21828;BME280;11076;47.942;11.804;2023-07-02T13:03:00;94018.28;;;23.54;54.87
21828;BME280;11076;47.942;11.804;2023-07-02T13:08:05;94007.06;;;24.00;53.22
21828;BME280;11076;47.942;11.804;2023-07-02T13:13:08;94012.13;;;23.48;52.06
21828;BME280;11076;47.942;11.804;2023-07-02T13:18:19;94001.72;;;23.73;51.95
21828;BME280;11076;47.942;11.804;2023-07-02T13:23:21;94011.03;;;23.72;52.77
21828;BME280;11076;47.942;11.804;2023-07-02T13:28:24;94001.00;;;23.81;54.48
21828;BME280;11076;47.942;11.804;2023-07-02T13:33:27;94009.28;;;23.53;54.98
21828;BME280;11076;47.942;11.804;2023-07-02T13:38:31;94010.38;;;23.30;54.18
21828;BME280;11076;47.942;11.804;2023-07-02T13:43:34;93992.97;;;22.89;53.77
21828;BME280;11076;47.942;11.804;2023-07-02T13:48:36;94000.72;;;22.96;54.71
21828;BME280;11076;47.942;11.804;2023-07-02T13:53:38;93997.47;;;23.21;53.90
21828;BME280;11076;47.942;11.804;2023-07-02T13:59:00;94001.97;;;23.62;50.58
21828;BME280;11076;47.942;11.804;2023-07-02T14:04:03;93994.94;;;24.15;50.60
21828;BME280;11076;47.942;11.804;2023-07-02T14:09:06;94007.44;;;24.08;50.41
21828;BME280;11076;47.942;11.804;2023-07-02T14:14:08;93991.75;;;24.22;47.42
21828;BME280;11076;47.942;11.804;2023-07-02T14:19:11;93993.22;;;24.28;49.24
21828;BME280;11076;47.942;11.804;2023-07-02T14:24:14;93990.94;;;24.53;50.36
21828;BME280;11076;47.942;11.804;2023-07-02T14:29:17;93992.44;;;24.28;48.85
21828;BME280;11076;47.942;11.804;2023-07-02T14:34:19;93996.75;;;24.60;50.07
21828;BME280;11076;47.942;11.804;2023-07-02T14:39:21;93988.38;;;25.23;47.12
21828;BME280;11076;47.942;11.804;2023-07-02T14:44:25;93986.78;;;25.48;45.66
21828;BME280;11076;47.942;11.804;2023-07-02T14:49:27;93990.97;;;25.54;47.39
21828;BME280;11076;47.942;11.804;2023-07-02T14:54:30;93998.41;;;24.78;48.82
21828;BME280;11076;47.942;11.804;2023-07-02T14:59:32;93997.00;;;24.50;49.23
21828;BME280;11076;47.942;11.804;2023-07-02T15:04:35;93995.59;;;24.21;49.20
21828;BME280;11076;47.942;11.804;2023-07-02T15:09:38;94000.25;;;24.52;49.07
21828;BME280;11076;47.942;11.804;2023-07-02T15:14:40;93989.44;;;24.47;48.00
21828;BME280;11076;47.942;11.804;2023-07-02T15:19:43;93982.59;;;24.58;48.28
21828;BME280;11076;47.942;11.804;2023-07-02T15:24:45;93982.91;;;25.40;46.50
21828;BME280;11076;47.942;11.804;2023-07-02T15:29:47;93993.31;;;25.20;47.42
21828;BME280;11076;47.942;11.804;2023-07-02T15:34:50;93982.53;;;25.07;46.61
21828;BME280;11076;47.942;11.804;2023-07-02T15:39:52;93980.59;;;24.98;46.60
21828;BME280;11076;47.942;11.804;2023-07-02T15:44:55;93978.72;;;25.34;46.06
21828;BME280;11076;47.942;11.804;2023-07-02T15:49:58;93976.97;;;25.38;45.67
21828;BME280;11076;47.942;11.804;2023-07-02T15:55:00;93974.19;;;25.20;45.76
21828;BME280;11076;47.942;11.804;2023-07-02T16:00:03;93984.91;;;24.82;46.75
21828;BME280;11076;47.942;11.804;2023-07-02T16:05:14;93972.38;;;24.90;47.52
21828;BME280;11076;47.942;11.804;2023-07-02T16:10:16;93980.09;;;24.79;47.84
21828;BME280;11076;47.942;11.804;2023-07-02T16:15:19;93975.88;;;24.64;47.23
21828;BME280;11076;47.942;11.804;2023-07-02T16:20:21;93976.59;;;24.47;47.96
21828;BME280;11076;47.942;11.804;2023-07-02T16:25:24;93977.19;;;24.35;47.89
21828;BME280;11076;47.942;11.804;2023-07-02T16:30:26;93971.94;;;24.48;48.85
21828;BME280;11076;47.942;11.804;2023-07-02T16:35:28;93973.03;;;24.38;49.17
21828;BME280;11076;47.942;11.804;2023-07-02T16:40:33;93976.94;;;23.83;49.50
21828;BME280;11076;47.942;11.804;2023-07-02T16:45:35;93978.06;;;23.82;49.61
21828;BME280;11076;47.942;11.804;2023-07-02T16:50:38;93989.09;;;23.99;48.78
21828;BME280;11076;47.942;11.804;2023-07-02T16:55:40;93978.97;;;23.55;51.03
21828;BME280;11076;47.942;11.804;2023-07-02T17:00:45;93983.84;;;23.21;52.28
21828;BME280;11076;47.942;11.804;2023-07-02T17:05:47;93991.44;;;23.70;50.67
21828;BME280;11076;47.942;11.804;2023-07-02T17:10:49;93980.63;;;24.10;49.88
21828;BME280;11076;47.942;11.804;2023-07-02T17:15:52;93986.78;;;23.11;52.49
21828;BME280;11076;47.942;11.804;2023-07-02T17:20:54;93982.03;;;22.53;54.01
21828;BME280;11076;47.942;11.804;2023-07-02T17:26:01;93988.56;;;22.79;54.14
21828;BME280;11076;47.942;11.804;2023-07-02T17:31:06;93978.56;;;24.15;51.95
21828;BME280;11076;47.942;11.804;2023-07-02T17:36:09;93980.06;;;24.70;50.50
21828;BME280;11076;47.942;11.804;2023-07-02T17:41:11;93978.59;;;24.64;50.69
21828;BME280;11076;47.942;11.804;2023-07-02T17:46:14;93984.47;;;24.97;49.44
21828;BME280;11076;47.942;11.804;2023-07-02T17:51:16;93982.00;;;24.78;48.30
21828;BME280;11076;47.942;11.804;2023-07-02T17:56:19;93996.66;;;23.80;50.92
21828;BME280;11076;47.942;11.804;2023-07-02T18:01:22;94001.97;;;24.08;49.85
21828;BME280;11076;47.942;11.804;2023-07-02T18:06:24;93994.06;;;24.37;49.46
21828;BME280;11076;47.942;11.804;2023-07-02T18:11:27;94002.09;;;24.02;50.45
21828;BME280;11076;47.942;11.804;2023-07-02T18:16:29;94003.91;;;23.62;51.59
21828;BME280;11076;47.942;11.804;2023-07-02T18:21:32;94009.38;;;23.26;52.59
21828;BME280;11076;47.942;11.804;2023-07-02T18:26:35;94011.84;;;22.99;53.67
21828;BME280;11076;47.942;11.804;2023-07-02T18:31:37;94007.41;;;23.03;54.06
21828;BME280;11076;47.942;11.804;2023-07-02T18:36:39;94015.06;;;22.88;54.92
21828;BME280;11076;47.942;11.804;2023-07-02T18:41:42;94015.91;;;21.86;56.81
21828;BME280;11076;47.942;11.804;2023-07-02T18:46:44;94009.13;;;21.32;58.97
21828;BME280;11076;47.942;11.804;2023-07-02T18:51:47;94003.63;;;20.56;61.28
21828;BME280;11076;47.942;11.804;2023-07-02T18:56:49;94008.13;;;20.17;62.82
21828;BME280;11076;47.942;11.804;2023-07-02T19:01:52;94026.75;;;19.76;64.33
21828;BME280;11076;47.942;11.804;2023-07-02T19:06:54;94023.44;;;19.44;66.90
21828;BME280;11076;47.942;11.804;2023-07-02T19:11:58;94031.94;;;19.33;67.41
21828;BME280;11076;47.942;11.804;2023-07-02T19:17:05;94043.44;;;19.14;67.54
21828;BME280;11076;47.942;11.804;2023-07-02T19:22:09;94045.13;;;19.00;68.09
21828;BME280;11076;47.942;11.804;2023-07-02T19:27:13;94051.63;;;19.04;68.08
21828;BME280;11076;47.942;11.804;2023-07-02T19:32:16;94056.03;;;18.90;68.30
21828;BME280;11076;47.942;11.804;2023-07-02T19:37:19;94063.47;;;18.58;68.88
21828;BME280;11076;47.942;11.804;2023-07-02T19:42:23;94069.13;;;18.57;69.52
21828;BME280;11076;47.942;11.804;2023-07-02T19:47:27;94071.31;;;18.55;69.63
21828;BME280;11076;47.942;11.804;2023-07-02T19:52:30;94082.44;;;18.38;70.31
21828;BME280;11076;47.942;11.804;2023-07-02T19:57:33;94077.00;;;18.58;70.43
21828;BME280;11076;47.942;11.804;2023-07-02T20:02:36;94091.81;;;18.71;70.32
21828;BME280;11076;47.942;11.804;2023-07-02T20:07:39;94094.00;;;18.64;70.78
21828;BME280;11076;47.942;11.804;2023-07-02T20:12:41;94091.28;;;18.64;70.86
21828;BME280;11076;47.942;11.804;2023-07-02T20:17:44;94098.13;;;18.51;71.33
21828;BME280;11076;47.942;11.804;2023-07-02T20:22:49;94101.06;;;18.60;71.76
21828;BME280;11076;47.942;11.804;2023-07-02T20:27:52;94103.28;;;18.37;72.05
21828;BME280;11076;47.942;11.804;2023-07-02T20:32:54;94106.53;;;18.34;72.58
21828;BME280;11076;47.942;11.804;2023-07-02T20:37:57;94095.75;;;18.19;73.30
21828;BME280;11076;47.942;11.804;2023-07-02T20:43:02;94107.66;;;18.02;74.24
21828;BME280;11076;47.942;11.804;2023-07-02T20:48:05;94113.09;;;18.13;74.83
21828;BME280;11076;47.942;11.804;2023-07-02T20:53:08;94111.75;;;17.95;75.49
21828;BME280;11076;47.942;11.804;2023-07-02T20:58:11;94114.16;;;17.76;75.83
21828;BME280;11076;47.942;11.804;2023-07-02T21:03:13;94115.50;;;17.73;76.31
21828;BME280;11076;47.942;11.804;2023-07-02T21:08:16;94106.03;;;17.60;77.18
21828;BME280;11076;47.942;11.804;2023-07-02T21:13:18;94114.13;;;17.60;77.97
21828;BME280;11076;47.942;11.804;2023-07-02T21:18:20;94111.41;;;17.50;78.30
21828;BME280;11076;47.942;11.804;2023-07-02T21:23:23;94121.69;;;17.38;79.97
21828;BME280;11076;47.942;11.804;2023-07-02T21:28:26;94134.94;;;17.39;80.31
21828;BME280;11076;47.942;11.804;2023-07-02T21:33:28;94129.50;;;17.34;81.38
21828;BME280;11076;47.942;11.804;2023-07-02T21:38:31;94134.63;;;17.30;81.82
21828;BME280;11076;47.942;11.804;2023-07-02T21:43:34;94143.78;;;17.19;82.36
21828;BME280;11076;47.942;11.804;2023-07-02T21:48:36;94137.88;;;17.33;82.98
21828;BME280;11076;47.942;11.804;2023-07-02T21:53:39;94137.88;;;17.33;82.95
21828;BME280;11076;47.942;11.804;2023-07-02T21:58:41;94130.38;;;17.65;82.35
21828;BME280;11076;47.942;11.804;2023-07-02T22:03:45;94141.97;;;17.76;81.97
21828;BME280;11076;47.942;11.804;2023-07-02T22:08:47;94138.78;;;17.95;81.19
21828;BME280;11076;47.942;11.804;2023-07-02T22:13:53;94140.13;;;18.02;81.32
21828;BME280;11076;47.942;11.804;2023-07-02T22:18:55;94140.13;;;18.23;80.36
21828;BME280;11076;47.942;11.804;2023-07-02T22:23:58;94148.25;;;18.13;80.61
21828;BME280;11076;47.942;11.804;2023-07-02T22:29:00;94147.13;;;18.24;80.20
21828;BME280;11076;47.942;11.804;2023-07-02T22:34:02;94141.72;;;18.44;79.40
21828;BME280;11076;47.942;11.804;2023-07-02T22:39:05;94146.06;;;18.40;79.46
21828;BME280;11076;47.942;11.804;2023-07-02T22:44:08;94152.00;;;18.37;79.73
21828;BME280;11076;47.942;11.804;2023-07-02T22:49:11;94152.78;;;18.48;79.20
21828;BME280;11076;47.942;11.804;2023-07-02T22:54:13;94146.59;;;18.37;79.62
21828;BME280;11076;47.942;11.804;2023-07-02T22:59:16;94149.31;;;18.37;80.21
21828;BME280;11076;47.942;11.804;2023-07-02T23:04:19;94147.66;;;18.36;80.06
21828;BME280;11076;47.942;11.804;2023-07-02T23:09:25;94157.13;;;18.44;80.08
21828;BME280;11076;47.942;11.804;2023-07-02T23:14:28;94153.06;;;18.41;80.04
21828;BME280;11076;47.942;11.804;2023-07-02T23:19:30;94142.78;;;18.43;80.00
21828;BME280;11076;47.942;11.804;2023-07-02T23:24:35;94148.47;;;18.42;79.74
21828;BME280;11076;47.942;11.804;2023-07-02T23:29:37;94149.34;;;18.06;80.72
21828;BME280;11076;47.942;11.804;2023-07-02T23:34:42;94143.66;;;17.98;81.41
21828;BME280;11076;47.942;11.804;2023-07-02T23:39:44;94139.59;;;18.00;81.33
21828;BME280;11076;47.942;11.804;2023-07-02T23:44:46;94152.28;;;17.79;82.03
21828;BME280;11076;47.942;11.804;2023-07-02T23:49:49;94136.28;;;17.52;82.81
21828;BME280;11076;47.942;11.804;2023-07-02T23:54:51;94135.22;;;17.53;83.03
21828;BME280;11076;47.942;11.804;2023-07-02T23:59:53;94138.72;;;17.43;83.71
